Time;durP1;ratioP1;P1;durP2;ratioP2;P2;SDS_P1;SDS_P2;PMS_P1;PMS_P2;Temp;Humidity;BMP_temperature;BMP_pressure;BME280_temperature;BME280_humidity;BME280_pressure;Samples;Min_cycle;Max_cycle;Signal;HPM_P1;HPM_P2
2023/07/22 00:00:44;;;;;;;3.80;2.55;;;17.00;69.10;;;16.01;83.45;95969.50;5056778;28;20431;-66
2023/07/22 00:03:09;;;;;;;3.28;2.08;;;17.00;69.20;;;15.99;83.98;95979.53;5049455;28;20064;-64
2023/07/22 00:05:35;;;;;;;3.05;2.17;;;16.90;69.50;;;15.96;84.24;95979.97;5039330;28;20056;-64
2023/07/22 00:08:01;;;;;;;3.50;2.03;;;16.80;69.50;;;15.92;84.06;95977.78;5054279;28;20040;-64
2023/07/22 00:10:27;;;;;;;3.17;1.70;;;16.80;69.90;;;15.88;84.51;95968.66;5038620;28;20033;-65
2023/07/22 00:12:53;;;;;;;5.20;1.85;;;16.70;69.90;;;15.84;85.03;95979.94;5053908;28;20056;-65
2023/07/22 00:15:20;;;;;;;3.13;2.08;;;16.70;69.90;;;15.81;85.30;95977.72;5072646;28;20562;-64
2023/07/22 00:17:46;;;;;;;2.65;1.77;;;16.70;70.00;;;15.76;85.40;95973.09;5054729;28;20395;-64
2023/07/22 00:20:12;;;;;;;2.83;2.00;;;16.70;70.10;;;15.73;85.92;95975.41;5039204;28;20032;-65
2023/07/22 00:22:41;;;;;;;2.55;2.03;;;16.70;70.30;;;15.71;85.98;95972.97;5038972;28;20039;-65
2023/07/22 00:25:10;;;;;;;4.68;1.95;;;16.60;70.40;;;15.67;86.28;95979.75;5069367;28;20020;-64
2023/07/22 00:27:40;;;;;;;3.35;2.00;;;16.60;70.40;;;15.66;86.28;95975.50;5038098;28;20029;-64
2023/07/22 00:30:09;;;;;;;3.30;2.08;;;16.60;70.40;;;15.61;86.57;95980.63;5071914;28;20064;-65
2023/07/22 00:32:38;;;;;;;4.13;2.05;;;16.60;70.60;;;15.57;86.36;95963.53;5039406;28;20024;-64
2023/07/22 00:35:07;;;;;;;3.13;1.98;;;16.50;70.80;;;15.56;87.99;95975.16;5039361;28;20032;-65
2023/07/22 00:37:33;;;;;;;3.95;2.40;;;16.50;70.90;;;15.52;86.95;95969.50;5072036;28;20025;-65
2023/07/22 00:39:59;;;;;;;3.60;2.28;;;16.50;70.90;;;15.50;87.51;95968.09;5037481;28;20039;-64
2023/07/22 00:42:25;;;;;;;2.88;1.98;;;16.40;71.00;;;15.45;87.40;95965.31;5034017;28;20082;-65
2023/07/22 00:44:51;;;;;;;4.18;2.17;;;16.40;71.10;;;15.42;87.39;95971.88;5053035;28;20073;-66
2023/07/22 00:47:17;;;;;;;3.10;1.85;;;16.40;71.10;;;15.39;87.98;95960.88;5075137;28;20070;-65
2023/07/22 00:49:43;;;;;;;4.75;2.45;;;16.30;71.50;;;15.35;87.84;95965.81;5034896;28;20371;-65
2023/07/22 00:52:08;;;;;;;4.53;2.47;;;16.30;71.40;;;15.33;88.10;95955.44;5058827;28;20035;-65
2023/07/22 00:54:34;;;;;;;3.15;2.20;;;16.30;71.40;;;15.29;89.08;95954.28;5035508;28;20041;-65
2023/07/22 00:57:00;;;;;;;4.00;2.33;;;16.30;71.30;;;15.25;89.39;95947.00;5041861;28;20064;-65
2023/07/22 00:59:26;;;;;;;4.47;2.55;;;16.20;71.50;;;15.23;88.89;95943.75;5035348;28;20460;-65
2023/07/22 01:01:52;;;;;;;2.95;2.03;;;16.20;71.70;;;15.18;89.00;95946.28;5057227;28;20112;-65
2023/07/22 01:04:19;;;;;;;3.05;2.10;;;16.20;71.70;;;15.15;89.64;95950.16;5069047;28;20068;-65
2023/07/22 01:06:45;;;;;;;4.07;2.60;;;16.10;71.80;;;15.13;89.20;95946.91;5044738;28;20422;-65
2023/07/22 01:09:10;;;;;;;4.18;2.40;;;16.10;71.90;;;15.10;90.62;95947.34;5036324;28;20063;-65
2023/07/22 01:11:36;;;;;;;3.17;2.40;;;16.10;72.30;;;15.07;89.78;95950.44;5054387;28;20056;-65
2023/07/22 01:14:03;;;;;;;3.72;2.20;;;16.00;72.40;;;15.06;90.79;95932.13;5043561;28;20111;-65
2023/07/22 01:16:29;;;;;;;3.22;2.33;;;16.00;72.40;;;15.04;91.19;95939.50;5039024;28;20072;-65
2023/07/22 01:18:55;;;;;;;2.80;2.13;;;16.00;72.50;;;15.00;90.95;95933.84;5036558;28;20152;-65
2023/07/22 01:21:24;;;;;;;3.55;2.10;;;16.00;72.60;;;14.99;90.85;95937.50;5037399;28;20126;-66
2023/07/22 01:23:50;;;;;;;6.32;2.40;;;15.90;72.80;;;14.96;91.25;95938.75;5035882;28;20039;-65
2023/07/22 01:26:15;;;;;;;3.10;2.03;;;15.90;73.00;;;14.93;90.98;95933.06;5035418;28;20035;-65
2023/07/22 01:28:41;;;;;;;4.35;2.53;;;15.80;73.00;;;14.90;92.25;95936.16;5066744;28;20060;-65
2023/07/22 01:31:07;;;;;;;4.15;2.25;;;15.80;73.20;;;14.86;92.64;95937.63;5036715;28;20353;-65
2023/07/22 01:33:32;;;;;;;5.15;2.35;;;15.80;73.30;;;14.83;92.53;95938.06;5072622;28;20028;-65
2023/07/22 01:35:59;;;;;;;3.53;2.40;;;15.70;73.60;;;14.78;92.98;95938.75;5035279;28;20155;-65
2023/07/22 01:38:25;;;;;;;3.65;2.30;;;15.70;73.70;;;14.76;92.99;95934.69;5036633;28;20033;-65
2023/07/22 01:40:51;;;;;;;5.47;2.75;;;15.70;73.70;;;14.70;93.55;95934.50;5034569;28;20087;-65
2023/07/22 01:43:17;;;;;;;4.80;2.47;;;15.70;73.70;;;14.69;94.55;95943.50;5039937;28;20080;-65
2023/07/22 01:45:42;;;;;;;3.75;2.30;;;15.60;73.80;;;14.68;94.96;95946.34;5050278;28;20385;-65
2023/07/22 01:48:08;;;;;;;9.40;2.75;;;15.70;73.90;;;14.68;94.47;95952.47;5077843;28;20070;-66
2023/07/22 01:50:34;;;;;;;8.25;2.80;;;15.70;74.10;;;14.65;95.50;95950.25;5069489;28;20402;-65
2023/07/22 01:53:00;;;;;;;5.60;2.65;;;15.60;74.30;;;14.63;94.86;95949.66;5057280;28;20033;-65
2023/07/22 01:55:25;;;;;;;3.85;2.70;;;15.60;74.60;;;14.60;96.95;95944.81;5050458;28;20589;-64
2023/07/22 01:57:51;;;;;;;5.45;2.80;;;15.60;75.00;;;14.60;96.93;95950.09;5055113;28;20597;-65
2023/07/22 02:00:17;;;;;;;4.70;3.38;;;15.60;75.40;;;14.60;97.65;95955.41;5068215;28;20481;-65
2023/07/22 02:02:43;;;;;;;4.85;3.40;;;15.60;75.70;;;14.60;97.92;95949.28;5060121;28;20484;-65
2023/07/22 02:05:10;;;;;;;5.18;3.30;;;15.60;75.80;;;14.60;98.89;95960.69;5052053;28;20447;-66
2023/07/22 02:07:36;;;;;;;5.82;3.65;;;15.60;76.00;;;14.61;100.00;95953.56;5038217;28;20564;-65
2023/07/22 02:10:02;;;;;;;7.53;3.72;;;15.60;76.50;;;14.57;100.00;95955.84;5047052;28;20028;-65
2023/07/22 02:12:27;;;;;;;6.78;4.13;;;15.50;77.40;;;14.55;100.00;95957.88;5052190;28;20080;-65
2023/07/22 02:14:53;;;;;;;8.70;4.10;;;15.50;77.90;;;14.51;100.00;95958.53;5043094;28;20052;-65
2023/07/22 02:17:20;;;;;;;7.50;4.50;;;15.40;78.40;;;14.47;100.00;95959.97;5042786;28;20028;-65
2023/07/22 02:19:46;;;;;;;6.28;4.28;;;15.30;79.00;;;14.41;100.00;95961.63;5052093;28;20127;-65
2023/07/22 02:22:12;;;;;;;7.82;4.50;;;15.30;79.00;;;14.39;100.00;95961.03;5069520;28;20159;-65
2023/07/22 02:24:38;;;;;;;8.32;4.75;;;15.30;79.20;;;14.36;100.00;95958.84;5035635;28;20036;-65
2023/07/22 02:27:04;;;;;;;7.78;4.03;;;15.30;79.40;;;14.38;100.00;95962.06;5041487;28;20092;-65
2023/07/22 02:29:31;;;;;;;6.90;4.53;;;15.40;79.10;;;14.37;100.00;95963.09;5026615;28;20040;-64
2023/07/22 02:31:57;;;;;;;7.45;4.70;;;15.40;79.40;;;14.37;100.00;95963.09;5034535;28;20033;-65
2023/07/22 02:34:23;;;;;;;6.18;4.32;;;15.30;79.90;;;14.34;100.00;95961.69;5074189;28;20112;-65
2023/07/22 02:36:49;;;;;;;7.72;4.82;;;15.30;80.10;;;14.33;100.00;95961.91;5033519;28;20035;-65
2023/07/22 02:39:14;;;;;;;8.70;4.45;;;15.30;80.40;;;14.32;100.00;95962.94;5056554;28;20248;-65
2023/07/22 02:41:41;;;;;;;6.75;4.63;;;15.30;80.30;;;14.33;100.00;95960.06;5033083;28;20673;-65
2023/07/22 02:44:06;;;;;;;9.18;4.70;;;15.30;80.00;;;14.36;100.00;95961.47;5073545;28;20529;-66
2023/07/22 02:46:32;;;;;;;7.70;4.70;;;15.40;79.60;;;14.36;100.00;95961.47;5033533;28;20072;-66
2023/07/22 02:49:01;;;;;;;7.63;4.30;;;15.50;79.40;;;14.36;100.00;95961.47;5039247;28;20143;-65
2023/07/22 02:51:27;;;;;;;6.20;4.22;;;15.40;79.40;;;14.36;100.00;95961.47;5033300;28;20048;-65
2023/07/22 02:53:53;;;;;;;6.47;4.38;;;15.40;79.30;;;14.33;100.00;95975.13;5054406;28;20347;-65
2023/07/22 02:56:18;;;;;;;6.72;4.95;;;15.40;79.20;;;14.30;100.00;95972.94;5051087;28;20170;-65
2023/07/22 02:58:44;;;;;;;7.22;4.18;;;15.30;79.50;;;14.29;100.00;95969.47;5037291;28;20503;-65
2023/07/22 03:01:10;;;;;;;7.70;4.70;;;15.30;79.40;;;14.28;100.00;95967.03;5068493;28;20082;-65
2023/07/22 03:03:36;;;;;;;7.75;4.78;;;15.30;79.40;;;14.27;100.00;95974.16;5036731;28;20071;-65
2023/07/22 03:06:03;;;;;;;6.00;4.47;;;15.30;79.40;;;14.26;100.00;95974.38;5032458;28;20123;-66
2023/07/22 03:08:29;;;;;;;7.38;5.47;;;15.30;79.50;;;14.25;100.00;95978.03;5037516;28;20052;-66
2023/07/22 03:10:55;;;;;;;6.28;5.55;;;15.30;80.00;;;14.21;100.00;95985.59;5034107;28;20039;-65
2023/07/22 03:13:21;;;;;;;8.18;5.65;;;15.20;80.50;;;14.21;100.00;95974.19;5026111;28;20032;-65
2023/07/22 03:15:46;;;;;;;7.70;4.95;;;15.20;80.60;;;14.19;100.00;95974.41;5067558;28;20040;-65
2023/07/22 03:18:12;;;;;;;6.68;4.93;;;15.30;80.30;;;14.21;100.00;95971.56;5016495;28;20056;-65
2023/07/22 03:20:38;;;;;;;10.52;5.68;;;15.20;80.10;;;14.20;100.00;95975.22;5047219;28;20252;-65
2023/07/22 03:23:05;;;;;;;9.48;5.30;;;15.30;80.00;;;14.19;100.00;95985.00;5035236;28;20033;-67
2023/07/22 03:25:31;;;;;;;7.90;5.10;;;15.20;80.10;;;14.17;100.00;95979.09;5035121;28;20043;-68
2023/07/22 03:27:56;;;;;;;6.07;4.63;;;15.20;80.30;;;14.16;100.00;95982.78;5038479;28;20090;-71
2023/07/22 03:30:23;;;;;;;6.30;4.72;;;15.30;80.30;;;14.15;100.00;95980.34;5033643;28;20037;-70
2023/07/22 03:32:50;;;;;;;10.30;4.95;;;15.30;80.10;;;14.16;100.00;95979.31;5036489;28;20447;-71
2023/07/22 03:35:16;;;;;;;9.45;4.80;;;15.20;79.90;;;14.12;100.00;95984.25;5037378;28;20051;-69
2023/07/22 03:37:43;;;;;;;7.43;4.55;;;15.30;79.80;;;14.13;100.00;95982.41;5057792;28;20047;-72
2023/07/22 03:40:26;;;;;;;6.72;4.95;;;15.20;79.70;;;14.10;100.00;95979.16;5054449;28;20139;-66
2023/07/22 03:42:53;;;;;;;6.03;4.72;;;15.20;79.90;;;14.12;100.00;95983.44;5045920;28;20120;-66
2023/07/22 03:45:19;;;;;;;7.65;5.03;;;15.20;79.90;;;14.07;100.00;95979.59;5054751;28;20044;-66
2023/07/22 03:47:46;;;;;;;7.45;4.90;;;15.20;79.70;;;14.08;100.00;95986.50;5069663;28;20490;-67
2023/07/22 03:50:11;;;;;;;7.38;4.88;;;15.20;79.80;;;14.07;100.00;95987.53;5036002;28;20136;-66
2023/07/22 03:52:37;;;;;;;6.05;4.55;;;15.20;79.80;;;14.05;100.00;95984.28;5032141;28;20685;-68
2023/07/22 03:55:05;;;;;;;8.68;5.82;;;15.20;79.80;;;14.03;100.00;95986.34;5020978;28;20056;-67
2023/07/22 03:57:30;;;;;;;8.30;5.22;;;15.10;79.80;;;14.02;100.00;95997.91;5073695;28;20078;-65
2023/07/22 03:59:56;;;;;;;6.88;4.78;;;15.20;80.00;;;14.02;100.00;95994.47;5049996;28;20037;-67
2023/07/22 04:02:22;;;;;;;7.55;4.68;;;15.10;80.10;;;14.01;100.00;96006.88;5056964;28;20452;-67
2023/07/22 04:04:48;;;;;;;9.00;5.20;;;15.20;80.00;;;14.01;100.00;96004.22;5080280;28;20040;-68
2023/07/22 04:07:13;;;;;;;7.22;5.25;;;15.20;80.00;;;14.02;100.00;95994.47;5048626;28;20036;-66
2023/07/22 04:09:40;;;;;;;5.78;4.82;;;15.20;79.90;;;14.02;100.00;96000.56;5064830;28;20049;-67
2023/07/22 04:12:07;;;;;;;5.68;4.75;;;15.20;79.90;;;14.02;100.00;95992.63;5059056;28;20560;-66
2023/07/22 04:14:33;;;;;;;6.20;4.90;;;15.30;79.90;;;14.06;100.00;95990.38;5069481;28;20039;-68
2023/07/22 04:16:58;;;;;;;8.70;6.00;;;15.30;79.90;;;14.08;100.00;96005.03;5019456;28;20060;-66
2023/07/22 04:19:24;;;;;;;7.25;5.28;;;15.30;80.20;;;14.07;100.00;95998.09;5041224;28;20043;-66
2023/07/22 04:21:50;;;;;;;8.30;5.60;;;15.30;80.50;;;14.11;100.00;95998.50;5035277;28;20070;-67
2023/07/22 04:24:16;;;;;;;7.70;5.15;;;15.30;80.50;;;14.13;100.00;96003.56;5042039;28;20072;-66
2023/07/22 04:26:43;;;;;;;7.20;4.97;;;15.40;80.40;;;14.15;100.00;96001.50;5030585;28;20065;-67
2023/07/22 04:29:09;;;;;;;7.28;5.20;;;15.50;80.40;;;14.19;100.00;96010.63;5054335;28;20158;-69
2023/07/22 04:31:35;;;;;;;6.50;5.07;;;15.50;80.50;;;14.23;100.00;96012.63;5051528;28;20052;-72
2023/07/22 04:34:01;;;;;;;8.30;5.30;;;15.60;80.60;;;14.27;100.00;96018.34;5056566;28;20451;-71
2023/07/22 04:36:29;;;;;;;9.32;5.43;;;15.60;80.60;;;14.31;100.00;96017.69;5053540;28;20519;-69
2023/07/22 04:38:55;;;;;;;8.25;5.07;;;15.60;80.70;;;14.35;100.00;96015.41;5055165;28;20033;-71
2023/07/22 04:41:21;;;;;;;8.02;5.30;;;15.70;80.90;;;14.40;100.00;96013.75;5052106;28;20031;-69
2023/07/22 04:43:47;;;;;;;8.13;5.72;;;15.70;80.90;;;14.42;100.00;96016.19;5031900;28;20045;-67
2023/07/22 04:46:13;;;;;;;8.43;6.13;;;15.70;81.60;;;14.46;100.00;96016.59;5036999;28;20048;-68
2023/07/22 04:48:39;;;;;;;11.90;5.60;;;15.80;81.60;;;14.49;100.00;96017.00;5036762;28;20048;-67
2023/07/22 04:51:04;;;;;;;7.45;5.20;;;15.90;81.60;;;14.56;100.00;96011.63;5036292;28;20076;-70
2023/07/22 04:53:30;;;;;;;6.25;5.35;;;16.00;81.40;;;14.62;100.00;96006.28;5043947;28;20115;-69
2023/07/22 04:55:56;;;;;;;9.25;5.57;;;16.10;81.00;;;14.70;100.00;96006.00;5036532;28;20053;-67
2023/07/22 04:58:22;;;;;;;9.65;6.00;;;16.20;81.00;;;14.76;100.00;96006.19;5041001;28;20074;-68
2023/07/22 05:00:51;;;;;;;7.97;5.38;;;16.20;80.90;;;14.79;100.00;96005.75;5034631;28;20033;-69
2023/07/22 05:03:18;;;;;;;9.32;6.38;;;16.10;81.30;;;14.82;100.00;96006.13;5037533;28;20293;-68
2023/07/22 05:05:44;;;;;;;8.85;6.03;;;16.20;81.20;;;14.89;100.00;96003.41;5053553;28;20033;-68
2023/07/22 05:08:10;;;;;;;7.07;5.38;;;16.30;81.00;;;14.94;100.00;96006.22;5044311;28;20032;-69
2023/07/22 05:10:37;;;;;;;7.07;5.22;;;16.40;80.80;;;14.99;100.00;96006.38;5055656;28;20035;-68
2023/07/22 05:13:03;;;;;;;8.88;5.93;;;16.50;80.60;;;15.06;100.00;96011.59;5018471;28;20586;-68
2023/07/22 05:15:29;;;;;;;8.50;5.53;;;16.60;80.40;;;15.14;100.00;96009.47;5056189;28;20060;-69
2023/07/22 05:17:55;;;;;;;7.60;5.80;;;16.70;80.10;;;15.20;100.00;96013.91;5067325;28;20028;-70
2023/07/22 05:20:20;;;;;;;9.68;5.57;;;16.60;79.80;;;15.26;100.00;96010.38;5057000;28;20064;-67
2023/07/22 05:22:46;;;;;;;9.55;5.28;;;16.70;79.60;;;15.33;100.00;96024.34;5036672;28;20090;-68
2023/07/22 05:25:12;;;;;;;7.32;5.15;;;16.80;79.00;;;15.39;100.00;96027.97;5036624;28;20118;-67
2023/07/22 05:27:39;;;;;;;7.40;5.43;;;16.90;79.00;;;15.47;100.00;96025.03;5049651;28;20059;-66
2023/07/22 05:30:06;;;;;;;6.15;4.43;;;16.90;78.50;;;15.53;100.00;96023.31;5038741;28;20029;-70
2023/07/22 05:32:31;;;;;;;7.20;4.90;;;17.00;78.30;;;15.55;100.00;96026.56;5051042;28;20131;-67
2023/07/22 05:34:57;;;;;;;8.20;4.07;;;17.00;78.20;;;15.57;100.00;96024.50;5039200;28;20162;-69
2023/07/22 05:37:26;;;;;;;6.22;4.47;;;17.00;78.20;;;15.63;100.00;96026.31;5052270;28;20056;-69
2023/07/22 05:39:52;;;;;;;6.10;4.18;;;17.10;78.10;;;15.69;100.00;96028.06;5055371;28;20029;-69
2023/07/22 05:42:18;;;;;;;5.15;4.15;;;17.20;77.70;;;15.77;100.00;96035.72;5051421;28;20125;-66
2023/07/22 05:44:44;;;;;;;5.15;4.30;;;17.30;77.40;;;15.85;100.00;96027.47;5055638;28;20099;-67
2023/07/22 05:47:09;;;;;;;7.30;4.40;;;17.50;77.20;;;15.92;100.00;96033.50;5035184;28;20028;-66
2023/07/22 05:49:35;;;;;;;7.10;4.40;;;17.50;76.30;;;15.96;100.00;96033.84;5034958;28;20065;-67
2023/07/22 05:52:01;;;;;;;6.00;4.40;;;17.40;76.50;;;16.00;100.00;96034.22;5049416;28;20060;-66
2023/07/22 05:54:27;;;;;;;7.50;4.05;;;17.40;76.20;;;16.06;100.00;96033.31;5051259;28;20070;-68
2023/07/22 05:56:52;;;;;;;9.13;4.22;;;17.60;76.40;;;16.16;100.00;96033.59;5036100;28;20064;-69
2023/07/22 05:59:18;;;;;;;4.32;3.47;;;17.70;75.40;;;16.24;100.00;96033.25;5051715;28;20533;-67
2023/07/22 06:01:44;;;;;;;5.05;3.67;;;17.80;74.70;;;16.32;100.00;96034.81;5070943;28;20111;-67
2023/07/22 06:04:10;;;;;;;5.22;3.50;;;18.00;74.20;;;16.44;100.00;96025.81;5040863;28;20044;-69
2023/07/22 06:06:35;;;;;;;7.10;3.45;;;18.20;73.50;;;16.60;100.00;96028.88;5059569;28;20042;-70
2023/07/22 06:09:01;;;;;;;4.70;3.20;;;18.50;72.50;;;16.80;100.00;96026.72;5049930;28;20779;-66
2023/07/22 06:11:28;;;;;;;5.32;3.45;;;18.80;71.80;;;17.00;100.00;96029.06;5017536;28;20036;-66
2023/07/22 06:13:56;;;;;;;5.70;3.28;;;19.00;70.40;;;17.17;100.00;96023.84;5032398;28;20024;-67
2023/07/22 06:16:22;;;;;;;5.30;2.83;;;19.10;69.50;;;17.31;100.00;96027.88;5040148;28;20029;-67
2023/07/22 06:18:48;;;;;;;3.63;2.75;;;19.30;68.00;;;17.45;100.00;96026.63;5050060;28;20036;-66
2023/07/22 06:21:14;;;;;;;3.70;2.80;;;19.40;67.50;;;17.57;98.64;96022.06;5050494;28;20078;-66
2023/07/22 06:23:39;;;;;;;6.22;2.70;;;19.60;66.70;;;17.70;96.51;96023.69;5032589;28;20071;-68
2023/07/22 06:26:05;;;;;;;4.20;2.63;;;19.60;65.30;;;17.80;94.46;96023.91;5052755;28;20117;-67
2023/07/22 06:28:31;;;;;;;4.60;2.90;;;19.70;64.70;;;17.92;93.81;96029.19;5044601;28;20052;-68
2023/07/22 06:30:57;;;;;;;4.85;2.35;;;19.90;64.20;;;18.06;92.50;96023.34;5036228;28;20076;-67
2023/07/22 06:33:23;;;;;;;5.88;2.50;;;20.10;63.80;;;18.22;90.95;96032.41;5034667;28;20032;-67
2023/07/22 06:35:48;;;;;;;3.75;2.58;;;20.40;62.90;;;18.39;89.96;96035.13;5067973;28;20908;-71
2023/07/22 06:38:14;;;;;;;4.03;2.47;;;20.60;61.90;;;18.57;88.81;96044.78;5031514;28;20068;-70
2023/07/22 06:40:40;;;;;;;4.30;2.30;;;20.90;60.30;;;18.72;86.34;96037.03;5050154;28;20041;-67
2023/07/22 06:43:06;;;;;;;3.80;2.35;;;21.10;59.70;;;18.86;84.76;96033.03;5046966;28;20040;-67
2023/07/22 06:45:32;;;;;;;4.15;2.45;;;21.10;58.60;;;19.04;84.09;96031.16;5047949;28;20036;-70
2023/07/22 06:47:58;;;;;;;3.03;2.03;;;21.50;57.50;;;19.23;81.52;96035.16;5033949;28;20563;-70
2023/07/22 06:50:24;;;;;;;3.15;1.85;;;21.70;55.80;;;19.42;79.46;96041.03;5034669;28;20329;-68
2023/07/22 06:52:50;;;;;;;3.63;2.17;;;22.00;54.60;;;19.58;79.51;96041.03;5052782;28;20060;-69
2023/07/22 06:55:16;;;;;;;5.15;1.85;;;22.20;54.30;;;19.77;78.33;96046.88;5032078;28;20071;-66
2023/07/22 06:57:41;;;;;;;5.80;1.70;;;22.40;54.00;;;19.95;77.38;96051.09;5053356;28;20055;-67
2023/07/22 07:00:09;;;;;;;4.45;2.05;;;22.70;53.60;;;20.12;76.05;96041.13;5049247;28;20025;-70
2023/07/22 07:02:35;;;;;;;3.75;2.10;;;22.90;52.60;;;20.34;75.34;96037.63;5071278;28;20444;-67
2023/07/22 07:05:01;;;;;;;4.25;2.00;;;23.20;51.90;;;20.55;73.88;96034.13;5047343;28;20515;-68
2023/07/22 07:07:27;;;;;;;3.08;1.90;;;23.50;50.40;;;20.73;71.94;96025.75;5053771;28;20146;-68
2023/07/22 07:09:53;;;;;;;3.30;1.60;;;23.60;49.20;;;20.87;71.09;96019.97;5036495;28;20063;-68
2023/07/22 07:12:18;;;;;;;2.72;1.70;;;23.70;49.10;;;21.02;70.32;96028.91;5056107;28;20028;-68
2023/07/22 07:14:44;;;;;;;2.75;1.80;;;24.00;49.20;;;21.19;68.98;96022.59;5051097;28;20029;-69
2023/07/22 07:17:10;;;;;;;3.67;1.50;;;24.20;48.00;;;21.37;67.82;96017.69;5043408;28;20032;-70
2023/07/22 07:19:36;;;;;;;3.78;1.90;;;24.50;46.90;;;21.56;67.18;96023.41;5035946;28;20056;-67
2023/07/22 07:22:01;;;;;;;5.72;1.90;;;24.70;47.00;;;21.77;66.42;96018.97;5040736;28;20028;-67
2023/07/22 07:24:27;;;;;;;4.57;2.03;;;25.00;45.90;;;22.00;66.00;96025.75;5055027;28;20465;-71
2023/07/22 07:26:53;;;;;;;4.82;1.90;;;25.40;46.40;;;22.20;64.21;96011.63;5053191;28;20060;-71
2023/07/22 07:29:19;;;;;;;3.03;1.60;;;25.40;44.00;;;22.37;63.16;96014.88;5051111;28;20024;-70
2023/07/22 07:31:45;;;;;;;3.83;1.63;;;25.60;44.70;;;22.57;62.75;96009.53;5057479;28;20133;-67
2023/07/22 07:34:10;;;;;;;4.60;1.65;;;25.90;43.20;;;22.75;61.20;96008.22;5053323;28;20455;-68
2023/07/22 07:36:36;;;;;;;3.78;1.88;;;26.10;43.30;;;22.96;60.55;95997.50;5072695;28;20615;-68
2023/07/22 07:39:03;;;;;;;2.75;1.50;;;26.20;41.70;;;23.14;58.39;95994.28;5055057;28;20544;-70
2023/07/22 07:41:28;;;;;;;5.50;1.73;;;26.40;41.10;;;23.35;58.69;96001.22;5023533;28;20163;-66
2023/07/22 07:43:54;;;;;;;2.60;1.40;;;26.60;41.00;;;23.59;57.37;96001.44;5056084;28;20028;-68
2023/07/22 07:46:25;;;;;;;2.03;1.30;;;26.90;40.30;;;23.87;53.73;95964.28;5071075;28;20064;-68
2023/07/22 07:48:55;;;;;;;2.65;1.80;;;27.30;39.40;;;24.20;54.70;95979.66;5055459;28;20119;-70
2023/07/22 07:51:22;;;;;;;;;;;27.80;37.70;;;24.48;50.20;95954.00;5039188;28;20052;-71
2023/07/22 07:53:48;;;;;;;5.55;1.35;;;28.00;37.60;;;24.81;55.26;95984.66;5070166;28;19993;-70
2023/07/22 07:56:14;;;;;;;1.67;1.20;;;28.40;37.30;;;25.10;52.94;95965.03;5020263;28;20538;-71
2023/07/22 07:58:40;;;;;;;3.20;1.30;;;28.70;36.50;;;25.30;50.14;95949.47;5049808;28;20025;-69
2023/07/22 08:01:06;;;;;;;2.67;1.40;;;28.20;34.80;;;25.45;49.02;95945.81;5052823;28;20055;-67
2023/07/22 08:03:33;;;;;;;1.83;1.23;;;28.30;35.20;;;25.58;48.57;95950.53;5057911;28;20039;-66
2023/07/22 08:05:59;;;;;;;3.05;1.70;;;28.50;35.60;;;25.81;47.21;95938.16;5052525;28;20103;-66
2023/07/22 08:08:24;;;;;;;2.75;1.30;;;28.70;34.40;;;26.05;46.63;95940.78;5058506;28;20980;-66
2023/07/22 08:11:16;;;;;;;2.85;1.33;;;29.10;34.70;;;26.30;41.69;95896.47;5035301;28;20533;-66
2023/07/22 08:13:43;;;;;;;2.67;1.60;;;29.40;33.60;;;26.41;45.45;95933.00;5062974;28;20496;-67
2023/07/22 08:16:10;;;;;;;3.35;1.30;;;29.20;34.20;;;26.48;44.04;95927.22;5019797;28;20037;-66
2023/07/22 08:18:36;;;;;;;2.17;1.17;;;29.20;33.10;;;26.51;43.32;95918.56;5041810;28;20571;-67
2023/07/22 08:21:03;;;;;;;1.77;1.27;;;29.30;32.70;;;26.61;42.53;95913.00;5035235;28;20435;-66
2023/07/22 08:23:29;;;;;;;2.78;1.23;;;29.60;32.00;;;26.70;41.84;95905.00;5055197;28;20043;-65
2023/07/22 08:25:55;;;;;;;3.10;1.05;;;29.60;31.00;;;26.88;41.27;95908.75;5049163;28;20093;-68
2023/07/22 08:28:20;;;;;;;2.58;1.30;;;29.70;31.10;;;26.85;41.45;95905.56;5040748;28;20594;-65
2023/07/22 08:30:48;;;;;;;2.20;1.20;;;29.30;31.90;;;26.90;40.55;95899.25;5070264;28;20060;-67
2023/07/22 08:33:14;;;;;;;2.88;1.40;;;29.80;32.00;;;27.10;40.39;95903.53;5073530;28;20134;-70
2023/07/22 08:35:40;;;;;;;3.00;1.40;;;30.00;31.30;;;27.18;40.58;95905.56;5036925;28;20078;-71
2023/07/22 08:38:06;;;;;;;3.05;1.40;;;30.10;31.50;;;27.39;40.26;95903.25;5056028;28;20486;-70
2023/07/22 08:40:36;;;;;;;2.42;1.30;;;30.50;31.50;;;27.63;38.87;95884.94;5052877;28;20093;-72
2023/07/22 08:43:03;;;;;;;4.35;1.52;;;30.90;31.30;;;27.80;39.25;95894.31;5037656;28;20110;-73
2023/07/22 08:45:32;;;;;;;3.47;1.40;;;30.50;31.00;;;27.92;38.85;95903.50;5040390;28;20039;-72
2023/07/22 08:47:58;;;;;;;2.30;1.10;;;30.70;30.90;;;28.15;38.51;95890.81;5059374;28;20028;-66
2023/07/22 08:50:26;;;;;;;1.73;1.00;;;31.10;30.00;;;28.41;37.31;95874.81;5052429;28;20345;-66
2023/07/22 08:52:51;;;;;;;3.67;1.33;;;31.50;28.70;;;28.50;37.66;95881.06;5055881;28;20050;-66
2023/07/22 08:55:17;;;;;;;6.63;1.83;;;31.20;29.80;;;28.36;36.75;95875.75;5045371;28;20116;-66
2023/07/22 08:57:43;;;;;;;2.83;1.42;;;30.50;29.90;;;28.21;36.67;95877.97;5037619;28;20123;-66
2023/07/22 09:00:09;;;;;;;4.03;1.50;;;30.40;30.20;;;28.24;36.73;95877.34;5040670;28;20051;-67
2023/07/22 09:02:35;;;;;;;1.88;1.20;;;30.80;30.00;;;28.22;36.47;95876.88;5038402;28;20055;-66
2023/07/22 09:05:02;;;;;;;2.35;1.40;;;30.70;29.70;;;28.34;36.35;95859.03;5036411;28;20060;-66
2023/07/22 09:07:28;;;;;;;2.00;1.35;;;31.30;29.20;;;28.54;35.99;95859.63;5035899;28;20602;-68
2023/07/22 09:09:54;;;;;;;1.77;1.05;;;31.50;29.40;;;28.83;36.07;95862.66;5036544;28;20097;-66
2023/07/22 09:12:21;;;;;;;1.85;1.20;;;32.00;29.20;;;28.86;35.15;95859.34;5052851;28;20033;-66
2023/07/22 09:14:46;;;;;;;4.10;1.23;;;31.20;28.80;;;28.71;35.24;95857.00;5052348;28;20105;-66
2023/07/22 09:17:12;;;;;;;3.03;1.20;;;31.10;29.70;;;28.71;35.46;95856.22;5051333;28;20044;-67
2023/07/22 09:19:38;;;;;;;1.98;1.30;;;31.10;29.80;;;28.78;35.37;95859.28;5041691;28;20474;-67
2023/07/22 09:22:04;;;;;;;3.55;2.00;;;31.30;29.50;;;28.84;35.63;95858.03;5052360;28;20506;-68
2023/07/22 09:24:30;;;;;;;2.63;1.30;;;31.50;29.60;;;28.94;35.30;95853.16;5056849;28;20036;-66
2023/07/22 09:26:57;;;;;;;1.90;1.30;;;31.40;29.50;;;28.71;35.15;95843.47;5054117;28;20028;-67
2023/07/22 09:29:38;;;;;;;2.58;1.42;;;30.50;29.80;;;28.68;34.18;95828.66;5056451;28;20028;-67
2023/07/22 09:32:05;;;;;;;2.30;1.20;;;31.10;29.80;;;28.68;35.34;95839.47;5030338;28;20128;-67
2023/07/22 09:34:30;;;;;;;3.35;1.40;;;31.10;29.40;;;28.78;34.85;95846.56;5040463;28;20027;-66
2023/07/22 09:36:57;;;;;;;7.65;1.50;;;31.50;29.40;;;28.91;34.85;95839.47;5033483;28;20158;-68
2023/07/22 09:39:23;;;;;;;2.15;1.08;;;31.80;28.60;;;28.99;34.74;95843.34;5040110;28;20318;-66
2023/07/22 09:41:49;;;;;;;2.50;1.30;;;31.90;29.20;;;28.92;34.63;95836.44;5046999;28;20041;-66
2023/07/22 09:44:15;;;;;;;4.53;1.40;;;31.10;30.00;;;28.65;34.75;95831.97;5039415;28;20032;-67
2023/07/22 09:46:41;;;;;;;1.30;1.00;;;30.60;30.00;;;28.67;34.51;95840.59;5034430;28;20032;-66
2023/07/22 09:49:13;;;;;;;2.67;1.42;;;31.50;29.80;;;28.93;34.14;95829.91;5050563;28;20380;-66
2023/07/22 09:51:39;;;;;;;1.85;1.20;;;31.90;29.40;;;29.20;34.17;95828.91;5038568;28;20020;-67
2023/07/22 09:54:05;;;;;;;3.47;1.35;;;32.30;27.80;;;29.24;33.67;95819.03;5035480;28;20033;-68
2023/07/22 09:56:31;;;;;;;2.25;1.25;;;31.80;28.40;;;29.43;33.95;95829.63;5040792;28;20027;-67
2023/07/22 09:59:00;;;;;;;3.05;1.48;;;32.40;28.00;;;29.68;32.81;95816.44;5019414;28;20044;-67
2023/07/22 10:01:29;;;;;;;2.33;1.10;;;32.70;27.70;;;29.51;32.62;95825.34;5039308;28;20392;-67
2023/07/22 10:03:56;;;;;;;3.08;1.65;;;31.70;28.30;;;29.41;32.64;95812.84;5041232;28;20111;-68
2023/07/22 10:06:27;;;;;;;2.13;1.10;;;31.80;27.60;;;29.51;31.91;95806.38;5069033;28;20071;-68
2023/07/22 10:08:55;;;;;;;1.67;1.30;;;32.60;27.20;;;29.75;33.07;95817.56;5034872;28;20021;-67
2023/07/22 10:11:21;;;;;;;3.67;1.48;;;33.10;26.80;;;29.98;33.05;95820.91;5057053;28;20040;-67
2023/07/22 10:13:46;;;;;;;1.38;1.10;;;33.30;26.40;;;29.98;32.47;95804.63;5033092;28;20496;-66